sensor_id;sensor_type;location;lat;lon;timestamp;pressure;altitude;pressure_sealevel;temperature;humidity
40502;BME280;29631;49.168;9.848;2023-01-27T00:00:12;96821.69;;;7.06;80.14
40502;BME280;29631;49.168;9.848;2023-01-27T00:02:39;96808.88;;;6.96;79.77
40502;BME280;29631;49.168;9.848;2023-01-27T00:05:07;96830.47;;;7.13;79.92
40502;BME280;29631;49.168;9.848;2023-01-27T00:07:33;96822.34;;;7.08;79.91
40502;BME280;29631;49.168;9.848;2023-01-27T00:09:58;96795.94;;;6.95;79.55
40502;BME280;29631;49.168;9.848;2023-01-27T00:12:25;96798.84;;;7.00;79.41
40502;BME280;29631;49.168;9.848;2023-01-27T00:15:12;96819.38;;;7.11;80.17
40502;BME280;29631;49.168;9.848;2023-01-27T00:17:38;96814.56;;;7.00;80.13
40502;BME280;29631;49.168;9.848;2023-01-27T00:20:05;96818.81;;;7.01;80.13
40502;BME280;29631;49.168;9.848;2023-01-27T00:22:31;96809.97;;;7.02;80.18
40502;BME280;29631;49.168;9.848;2023-01-27T00:25:16;96831.66;;;7.10;79.74
40502;BME280;29631;49.168;9.848;2023-01-27T00:27:42;96817.19;;;7.00;79.96
40502;BME280;29631;49.168;9.848;2023-01-27T00:30:09;96808.34;;;7.01;79.29
40502;BME280;29631;49.168;9.848;2023-01-27T00:32:35;96809.69;;;6.97;79.62
40502;BME280;29631;49.168;9.848;2023-01-27T00:35:19;96818.63;;;7.02;79.36
40502;BME280;29631;49.168;9.848;2023-01-27T00:37:46;96812.25;;;7.05;79.51
40502;BME280;29631;49.168;9.848;2023-01-27T00:40:15;96808.97;;;7.03;79.62
40502;BME280;29631;49.168;9.848;2023-01-27T00:42:42;96787.81;;;6.90;79.56
40502;BME280;29631;49.168;9.848;2023-01-27T00:45:08;96790.63;;;6.88;79.54
40502;BME280;29631;49.168;9.848;2023-01-27T00:47:53;96822.00;;;7.11;79.79
40502;BME280;29631;49.168;9.848;2023-01-27T00:50:20;96812.59;;;7.02;79.86
40502;BME280;29631;49.168;9.848;2023-01-27T00:52:46;96803.47;;;6.98;79.58
40502;BME280;29631;49.168;9.848;2023-01-27T00:55:12;96812.59;;;7.02;79.80
40502;BME280;29631;49.168;9.848;2023-01-27T00:57:41;96791.44;;;6.89;79.50
40502;BME280;29631;49.168;9.848;2023-01-27T01:00:09;96803.16;;;6.93;79.78
40502;BME280;29631;49.168;9.848;2023-01-27T01:02:35;96808.88;;;6.96;79.47
40502;BME280;29631;49.168;9.848;2023-01-27T01:05:01;96815.91;;;6.96;79.97
40502;BME280;29631;49.168;9.848;2023-01-27T01:07:27;96811.75;;;6.87;79.65
40502;BME280;29631;49.168;9.848;2023-01-27T01:09:52;96813.09;;;6.83;80.05
40502;BME280;29631;49.168;9.848;2023-01-27T01:12:18;96817.50;;;6.82;80.11
40502;BME280;29631;49.168;9.848;2023-01-27T01:14:44;96798.16;;;6.69;79.60
40502;BME280;29631;49.168;9.848;2023-01-27T01:17:09;96816.72;;;6.82;79.90
40502;BME280;29631;49.168;9.848;2023-01-27T01:19:35;96833.81;;;6.92;79.84
40502;BME280;29631;49.168;9.848;2023-01-27T01:22:01;96805.78;;;6.78;79.87
40502;BME280;29631;49.168;9.848;2023-01-27T01:24:26;96822.06;;;6.88;79.32
40502;BME280;29631;49.168;9.848;2023-01-27T01:26:52;96831.66;;;6.96;79.51
40502;BME280;29631;49.168;9.848;2023-01-27T01:29:18;96818.44;;;6.89;79.71
40502;BME280;29631;49.168;9.848;2023-01-27T01:31:43;96825.75;;;6.94;79.73
40502;BME280;29631;49.168;9.848;2023-01-27T01:34:09;96796.00;;;6.72;79.78
40502;BME280;29631;49.168;9.848;2023-01-27T01:36:35;96819.97;;;6.84;79.54
40502;BME280;29631;49.168;9.848;2023-01-27T01:39:01;96834.59;;;6.93;79.72
40502;BME280;29631;49.168;9.848;2023-01-27T01:41:26;96818.28;;;6.91;79.83
40502;BME280;29631;49.168;9.848;2023-01-27T01:43:52;96790.56;;;6.74;79.15
40502;BME280;29631;49.168;9.848;2023-01-27T01:46:20;96812.38;;;6.89;79.81
40502;BME280;29631;49.168;9.848;2023-01-27T01:48:59;96824.59;;;6.96;79.37
40502;BME280;29631;49.168;9.848;2023-01-27T01:51:39;96831.56;;;7.04;79.48
40502;BME280;29631;49.168;9.848;2023-01-27T01:54:20;96790.50;;;6.82;79.40
40502;BME280;29631;49.168;9.848;2023-01-27T01:56:56;96814.81;;;6.90;79.35
40502;BME280;29631;49.168;9.848;2023-01-27T01:59:29;96808.41;;;6.93;79.75
40502;BME280;29631;49.168;9.848;2023-01-27T02:02:01;96807.41;;;6.94;79.20
40502;BME280;29631;49.168;9.848;2023-01-27T02:04:33;96805.06;;;6.99;80.01
40502;BME280;29631;49.168;9.848;2023-01-27T02:07:17;96797.13;;;6.92;79.60
40502;BME280;29631;49.168;9.848;2023-01-27T02:09:44;96785.53;;;6.87;79.36
40502;BME280;29631;49.168;9.848;2023-01-27T02:12:10;96786.66;;;6.92;79.30
40502;BME280;29631;49.168;9.848;2023-01-27T02:14:35;96791.34;;;6.97;79.60
40502;BME280;29631;49.168;9.848;2023-01-27T02:17:03;96795.22;;;7.01;79.18
40502;BME280;29631;49.168;9.848;2023-01-27T02:22:51;96789.44;;;6.91;79.02
40502;BME280;29631;49.168;9.848;2023-01-27T02:25:28;96795.69;;;6.90;79.53
40502;BME280;29631;49.168;9.848;2023-01-27T02:27:57;96789.25;;;6.78;79.40
40502;BME280;29631;49.168;9.848;2023-01-27T02:30:23;96805.88;;;6.85;79.89
40502;BME280;29631;49.168;9.848;2023-01-27T02:32:49;96793.03;;;6.75;79.15
40502;BME280;29631;49.168;9.848;2023-01-27T02:35:27;96811.13;;;6.85;79.79
40502;BME280;29631;49.168;9.848;2023-01-27T02:37:55;96797.19;;;6.84;79.30
40502;BME280;29631;49.168;9.848;2023-01-27T02:40:22;96811.41;;;6.90;79.37
40502;BME280;29631;49.168;9.848;2023-01-27T02:42:49;96798.19;;;6.83;79.82
40502;BME280;29631;49.168;9.848;2023-01-27T02:45:15;96802.25;;;6.86;79.28
40502;BME280;29631;49.168;9.848;2023-01-27T02:47:40;96816.25;;;6.93;78.97
40502;BME280;29631;49.168;9.848;2023-01-27T02:50:07;96803.72;;;6.88;79.18
40502;BME280;29631;49.168;9.848;2023-01-27T02:52:33;96795.41;;;6.85;79.64
40502;BME280;29631;49.168;9.848;2023-01-27T02:54:58;96804.44;;;6.97;79.24
40502;BME280;29631;49.168;9.848;2023-01-27T02:57:24;96813.94;;;6.98;79.36
40502;BME280;29631;49.168;9.848;2023-01-27T02:59:50;96793.41;;;6.87;79.61
40502;BME280;29631;49.168;9.848;2023-01-27T03:02:15;96790.97;;;6.85;78.80
40502;BME280;29631;49.168;9.848;2023-01-27T03:04:48;96798.63;;;6.87;79.49
40502;BME280;29631;49.168;9.848;2023-01-27T03:07:14;96797.00;;;6.86;79.25
40502;BME280;29631;49.168;9.848;2023-01-27T03:09:40;96801.56;;;6.92;78.91
40502;BME280;29631;49.168;9.848;2023-01-27T03:12:06;96803.88;;;6.87;79.50
40502;BME280;29631;49.168;9.848;2023-01-27T03:14:51;96779.47;;;6.72;79.29
40502;BME280;29631;49.168;9.848;2023-01-27T03:17:36;96787.88;;;6.82;79.38
40502;BME280;29631;49.168;9.848;2023-01-27T03:20:22;96778.47;;;6.73;79.34
40502;BME280;29631;49.168;9.848;2023-01-27T03:22:48;96782.38;;;6.77;78.87
40502;BME280;29631;49.168;9.848;2023-01-27T03:25:14;96791.88;;;6.78;79.09
40502;BME280;29631;49.168;9.848;2023-01-27T03:27:40;96799.00;;;6.84;79.43
40502;BME280;29631;49.168;9.848;2023-01-27T03:30:07;96765.63;;;6.63;78.93
40502;BME280;29631;49.168;9.848;2023-01-27T03:32:34;96796.72;;;6.81;79.61
40502;BME280;29631;49.168;9.848;2023-01-27T03:35:00;96796.13;;;6.79;79.13
40502;BME280;29631;49.168;9.848;2023-01-27T03:37:27;96786.63;;;6.78;79.55
40502;BME280;29631;49.168;9.848;2023-01-27T03:40:13;96774.25;;;6.72;79.30
40502;BME280;29631;49.168;9.848;2023-01-27T03:42:58;96797.00;;;6.86;79.49
40502;BME280;29631;49.168;9.848;2023-01-27T03:45:49;96808.31;;;6.86;79.28
40502;BME280;29631;49.168;9.848;2023-01-27T03:48:34;96794.13;;;6.81;79.27
40502;BME280;29631;49.168;9.848;2023-01-27T03:51:03;96762.84;;;6.65;79.23
40502;BME280;29631;49.168;9.848;2023-01-27T03:53:30;96794.81;;;6.75;79.46
40502;BME280;29631;49.168;9.848;2023-01-27T03:55:55;96800.06;;;6.75;79.64
40502;BME280;29631;49.168;9.848;2023-01-27T03:58:26;96814.47;;;6.79;79.03
40502;BME280;29631;49.168;9.848;2023-01-27T04:00:56;96811.47;;;6.82;78.85
40502;BME280;29631;49.168;9.848;2023-01-27T04:03:24;96804.97;;;6.78;79.04
40502;BME280;29631;49.168;9.848;2023-01-27T04:06:13;96818.34;;;6.83;79.75
40502;BME280;29631;49.168;9.848;2023-01-27T04:08:58;96818.34;;;6.83;79.65
40502;BME280;29631;49.168;9.848;2023-01-27T04:11:24;96826.00;;;6.84;79.18
40502;BME280;29631;49.168;9.848;2023-01-27T04:14:10;96826.84;;;6.85;79.56
40502;BME280;29631;49.168;9.848;2023-01-27T04:16:36;96819.03;;;6.77;79.72
40502;BME280;29631;49.168;9.848;2023-01-27T04:19:06;96834.50;;;6.86;79.56
40502;BME280;29631;49.168;9.848;2023-01-27T04:21:33;96817.97;;;6.86;79.06
40502;BME280;29631;49.168;9.848;2023-01-27T04:24:00;96825.16;;;6.92;79.64
40502;BME280;29631;49.168;9.848;2023-01-27T04:26:26;96818.78;;;6.86;79.53
40502;BME280;29631;49.168;9.848;2023-01-27T04:29:00;96832.16;;;6.91;79.68
40502;BME280;29631;49.168;9.848;2023-01-27T04:31:26;96811.84;;;6.79;79.33
40502;BME280;29631;49.168;9.848;2023-01-27T04:33:52;96835.31;;;6.87;79.18
40502;BME280;29631;49.168;9.848;2023-01-27T04:36:17;96837.88;;;6.95;78.88
40502;BME280;29631;49.168;9.848;2023-01-27T04:38:43;96841.47;;;6.94;78.64
40502;BME280;29631;49.168;9.848;2023-01-27T04:41:09;96833.69;;;6.86;79.38
40502;BME280;29631;49.168;9.848;2023-01-27T04:43:35;96818.22;;;6.76;78.71
40502;BME280;29631;49.168;9.848;2023-01-27T04:46:01;96824.56;;;6.82;78.83
40502;BME280;29631;49.168;9.848;2023-01-27T04:48:27;96844.81;;;6.88;78.50
40502;BME280;29631;49.168;9.848;2023-01-27T04:50:53;96833.69;;;6.86;78.70
40502;BME280;29631;49.168;9.848;2023-01-27T04:53:18;96833.69;;;6.86;79.01
40502;BME280;29631;49.168;9.848;2023-01-27T04:55:47;96817.06;;;6.79;79.38
40502;BME280;29631;49.168;9.848;2023-01-27T04:58:15;96824.75;;;6.80;78.95
40502;BME280;29631;49.168;9.848;2023-01-27T05:00:43;96830.06;;;6.87;78.97
40502;BME280;29631;49.168;9.848;2023-01-27T05:03:09;96842.47;;;6.93;78.77
40502;BME280;29631;49.168;9.848;2023-01-27T05:05:37;96848.16;;;6.96;79.36
40502;BME280;29631;49.168;9.848;2023-01-27T05:08:05;96829.91;;;6.88;78.94
40502;BME280;29631;49.168;9.848;2023-01-27T05:10:31;96843.13;;;6.95;79.50
40502;BME280;29631;49.168;9.848;2023-01-27T05:12:57;96835.91;;;6.97;79.12
40502;BME280;29631;49.168;9.848;2023-01-27T05:15:24;96834.25;;;6.96;79.66
40502;BME280;29631;49.168;9.848;2023-01-27T05:17:49;96794.81;;;6.75;79.37
40502;BME280;29631;49.168;9.848;2023-01-27T05:20:16;96817.63;;;6.89;78.50
40502;BME280;29631;49.168;9.848;2023-01-27T05:22:41;96823.84;;;6.88;79.46
40502;BME280;29631;49.168;9.848;2023-01-27T05:25:08;96836.25;;;6.94;79.06
40502;BME280;29631;49.168;9.848;2023-01-27T05:27:34;96846.16;;;6.84;79.15
40502;BME280;29631;49.168;9.848;2023-01-27T05:30:01;96851.25;;;7.00;79.42
40502;BME280;29631;49.168;9.848;2023-01-27T05:32:26;96836.25;;;6.94;78.97
40502;BME280;29631;49.168;9.848;2023-01-27T05:34:52;96839.69;;;6.94;79.08
40502;BME280;29631;49.168;9.848;2023-01-27T05:37:18;96833.63;;;6.94;79.60
40502;BME280;29631;49.168;9.848;2023-01-27T05:39:44;96828.09;;;6.89;79.21
40502;BME280;29631;49.168;9.848;2023-01-27T05:42:09;96839.84;;;6.93;79.57
40502;BME280;29631;49.168;9.848;2023-01-27T05:44:35;96849.63;;;6.99;79.13
40502;BME280;29631;49.168;9.848;2023-01-27T05:47:01;96811.47;;;6.82;79.47
40502;BME280;29631;49.168;9.848;2023-01-27T05:49:27;96824.84;;;6.87;78.81
40502;BME280;29631;49.168;9.848;2023-01-27T05:51:52;96851.25;;;7.00;78.73
40502;BME280;29631;49.168;9.848;2023-01-27T05:54:18;96846.38;;;6.97;79.01
40502;BME280;29631;49.168;9.848;2023-01-27T05:56:44;96847.56;;;6.94;79.45
40502;BME280;29631;49.168;9.848;2023-01-27T05:59:10;96853.13;;;6.91;79.67
40502;BME280;29631;49.168;9.848;2023-01-27T06:01:36;96856.22;;;6.95;79.20
40502;BME280;29631;49.168;9.848;2023-01-27T06:04:03;96853.97;;;6.92;79.41
40502;BME280;29631;49.168;9.848;2023-01-27T06:06:31;96856.22;;;6.95;78.81
40502;BME280;29631;49.168;9.848;2023-01-27T06:08:58;96837.78;;;6.88;78.72
40502;BME280;29631;49.168;9.848;2023-01-27T06:11:24;96857.47;;;6.99;79.61
40502;BME280;29631;49.168;9.848;2023-01-27T06:13:52;96848.72;;;6.92;79.35
40502;BME280;29631;49.168;9.848;2023-01-27T06:16:19;96852.31;;;6.91;79.40
40502;BME280;29631;49.168;9.848;2023-01-27T06:18:46;96867.97;;;6.99;78.87
40502;BME280;29631;49.168;9.848;2023-01-27T06:21:14;96854.41;;;6.95;78.81
40502;BME280;29631;49.168;9.848;2023-01-27T06:23:41;96856.41;;;6.93;78.62
40502;BME280;29631;49.168;9.848;2023-01-27T06:26:14;96872.59;;;6.97;79.23
40502;BME280;29631;49.168;9.848;2023-01-27T06:28:41;96864.25;;;6.93;79.48
40502;BME280;29631;49.168;9.848;2023-01-27T06:31:16;96868.31;;;6.96;79.60
40502;BME280;29631;49.168;9.848;2023-01-27T06:33:44;96873.84;;;7.01;79.23
40502;BME280;29631;49.168;9.848;2023-01-27T06:36:13;96860.81;;;6.93;79.39
40502;BME280;29631;49.168;9.848;2023-01-27T06:38:39;96841.25;;;6.81;78.53
40502;BME280;29631;49.168;9.848;2023-01-27T06:41:05;96877.97;;;6.95;79.55
40502;BME280;29631;49.168;9.848;2023-01-27T06:43:31;96886.59;;;7.04;79.23
40502;BME280;29631;49.168;9.848;2023-01-27T06:45:57;96885.31;;;7.00;78.62
40502;BME280;29631;49.168;9.848;2023-01-27T06:48:24;96891.19;;;7.02;79.30
40502;BME280;29631;49.168;9.848;2023-01-27T06:50:52;96860.59;;;6.80;78.72
40502;BME280;29631;49.168;9.848;2023-01-27T06:53:18;96882.78;;;6.92;78.53
40502;BME280;29631;49.168;9.848;2023-01-27T06:55:44;96895.19;;;6.98;78.47
40502;BME280;29631;49.168;9.848;2023-01-27T06:58:12;96883.13;;;6.89;78.34
40502;BME280;29631;49.168;9.848;2023-01-27T07:00:39;96903.31;;;7.03;78.50
40502;BME280;29631;49.168;9.848;2023-01-27T07:03:06;96884.09;;;6.88;78.23
40502;BME280;29631;49.168;9.848;2023-01-27T07:05:32;96866.91;;;6.71;78.55
40502;BME280;29631;49.168;9.848;2023-01-27T07:07:59;96890.97;;;6.89;78.93
40502;BME280;29631;49.168;9.848;2023-01-27T07:10:26;96917.06;;;7.05;78.20
40502;BME280;29631;49.168;9.848;2023-01-27T07:12:52;96901.13;;;6.92;78.80
40502;BME280;29631;49.168;9.848;2023-01-27T07:15:18;96906.28;;;7.00;79.03
40502;BME280;29631;49.168;9.848;2023-01-27T07:17:43;96899.50;;;6.91;79.09
40502;BME280;29631;49.168;9.848;2023-01-27T07:20:12;96909.06;;;6.98;78.23
40502;BME280;29631;49.168;9.848;2023-01-27T07:22:38;96923.44;;;7.02;78.93
40502;BME280;29631;49.168;9.848;2023-01-27T07:25:05;96924.28;;;7.03;78.73
40502;BME280;29631;49.168;9.848;2023-01-27T07:27:31;96924.94;;;7.05;78.55
40502;BME280;29631;49.168;9.848;2023-01-27T07:29:57;96929.16;;;7.06;79.15
40502;BME280;29631;49.168;9.848;2023-01-27T07:32:23;96916.13;;;6.98;78.71
40502;BME280;29631;49.168;9.848;2023-01-27T07:34:48;96919.75;;;6.97;78.48
40502;BME280;29631;49.168;9.848;2023-01-27T07:37:14;96913.06;;;6.94;78.77
40502;BME280;29631;49.168;9.848;2023-01-27T07:39:40;96930.78;;;7.07;78.33
40502;BME280;29631;49.168;9.848;2023-01-27T07:42:06;96939.63;;;7.06;79.15
40502;BME280;29631;49.168;9.848;2023-01-27T07:44:33;96940.19;;;7.01;78.61
40502;BME280;29631;49.168;9.848;2023-01-27T07:46:59;96966.44;;;7.16;78.64
40502;BME280;29631;49.168;9.848;2023-01-27T07:49:25;96936.72;;;7.01;78.63
40502;BME280;29631;49.168;9.848;2023-01-27T07:51:50;96927.75;;;6.95;78.24
40502;BME280;29631;49.168;9.848;2023-01-27T07:54:16;96943.72;;;7.08;78.91
40502;BME280;29631;49.168;9.848;2023-01-27T07:56:42;96946.88;;;7.04;78.29
40502;BME280;29631;49.168;9.848;2023-01-27T07:59:10;96946.88;;;7.04;78.95
40502;BME280;29631;49.168;9.848;2023-01-27T08:01:36;96937.84;;;6.84;78.93
40502;BME280;29631;49.168;9.848;2023-01-27T08:04:02;96947.91;;;6.95;78.15
40502;BME280;29631;49.168;9.848;2023-01-27T08:06:28;96960.22;;;6.94;78.31
40502;BME280;29631;49.168;9.848;2023-01-27T08:08:54;96943.38;;;6.89;78.88
40502;BME280;29631;49.168;9.848;2023-01-27T08:11:20;96973.69;;;7.06;78.89
40502;BME280;29631;49.168;9.848;2023-01-27T08:13:46;96960.69;;;6.98;78.88
40502;BME280;29631;49.168;9.848;2023-01-27T08:16:14;96980.25;;;7.10;78.74
40502;BME280;29631;49.168;9.848;2023-01-27T08:18:40;96962.28;;;6.99;78.33
40502;BME280;29631;49.168;9.848;2023-01-27T08:21:09;96972.25;;;7.03;78.52
40502;BME280;29631;49.168;9.848;2023-01-27T08:23:35;96966.22;;;7.03;78.86
40502;BME280;29631;49.168;9.848;2023-01-27T08:26:04;96964.25;;;7.05;78.60
40502;BME280;29631;49.168;9.848;2023-01-27T08:28:34;96973.00;;;7.12;78.62
40502;BME280;29631;49.168;9.848;2023-01-27T08:31:09;96957.22;;;6.97;78.24
40502;BME280;29631;49.168;9.848;2023-01-27T08:33:35;96962.59;;;7.04;78.33
40502;BME280;29631;49.168;9.848;2023-01-27T08:36:12;96960.13;;;7.02;78.25
40502;BME280;29631;49.168;9.848;2023-01-27T08:38:39;96965.50;;;7.09;78.59
40502;BME280;29631;49.168;9.848;2023-01-27T08:41:14;96955.34;;;7.06;79.14
40502;BME280;29631;49.168;9.848;2023-01-27T08:43:41;96957.19;;;7.05;78.31
40502;BME280;29631;49.168;9.848;2023-01-27T08:46:07;96951.66;;;7.00;78.77
40502;BME280;29631;49.168;9.848;2023-01-27T08:48:34;96944.31;;;6.96;78.93
40502;BME280;29631;49.168;9.848;2023-01-27T08:51:01;96965.84;;;7.06;78.20
40502;BME280;29631;49.168;9.848;2023-01-27T08:53:28;96957.00;;;7.07;78.86
40502;BME280;29631;49.168;9.848;2023-01-27T08:56:03;96955.06;;;7.01;78.72
40502;BME280;29631;49.168;9.848;2023-01-27T08:58:30;96962.22;;;7.07;78.69
40502;BME280;29631;49.168;9.848;2023-01-27T09:01:02;96969.25;;;7.14;79.35
40502;BME280;29631;49.168;9.848;2023-01-27T09:03:32;96967.47;;;7.07;78.82
40502;BME280;29631;49.168;9.848;2023-01-27T09:05:59;96969.13;;;7.08;78.34
40502;BME280;29631;49.168;9.848;2023-01-27T09:08:25;96973.78;;;6.98;78.95
40502;BME280;29631;49.168;9.848;2023-01-27T09:10:51;96975.81;;;7.10;78.50
40502;BME280;29631;49.168;9.848;2023-01-27T09:13:18;96960.59;;;7.06;79.17
40502;BME280;29631;49.168;9.848;2023-01-27T09:15:47;96976.09;;;7.15;78.99
40502;BME280;29631;49.168;9.848;2023-01-27T09:18:15;96974.34;;;7.08;78.53
40502;BME280;29631;49.168;9.848;2023-01-27T09:20:40;96985.63;;;7.08;78.53
40502;BME280;29631;49.168;9.848;2023-01-27T09:23:06;96924.16;;;6.74;78.88
40502;BME280;29631;49.168;9.848;2023-01-27T09:25:32;96971.91;;;7.06;78.60
40502;BME280;29631;49.168;9.848;2023-01-27T09:27:59;96986.75;;;7.14;78.69
40502;BME280;29631;49.168;9.848;2023-01-27T09:30:27;96981.78;;;7.18;78.67
40502;BME280;29631;49.168;9.848;2023-01-27T09:32:56;96996.81;;;7.24;78.61
40502;BME280;29631;49.168;9.848;2023-01-27T09:35:22;96992.22;;;7.26;78.61
40502;BME280;29631;49.168;9.848;2023-01-27T09:37:57;96987.03;;;7.18;79.39
40502;BME280;29631;49.168;9.848;2023-01-27T09:46:44;96984.88;;;7.22;78.94
40502;BME280;29631;49.168;9.848;2023-01-27T09:59:11;96998.41;;;7.33;79.56
40502;BME280;29631;49.168;9.848;2023-01-27T10:04:47;97000.03;;;7.34;79.31
40502;BME280;29631;49.168;9.848;2023-01-27T10:07:51;97005.91;;;7.36;79.03
40502;BME280;29631;49.168;9.848;2023-01-27T10:13:36;96990.91;;;7.30;79.44
40502;BME280;29631;49.168;9.848;2023-01-27T10:16:50;97007.53;;;7.37;79.14
40502;BME280;29631;49.168;9.848;2023-01-27T10:19:30;97004.75;;;7.39;79.15
40502;BME280;29631;49.168;9.848;2023-01-27T10:22:29;96961.53;;;7.13;78.86
40502;BME280;29631;49.168;9.848;2023-01-27T10:27:56;97002.94;;;7.39;79.08
40502;BME280;29631;49.168;9.848;2023-01-27T10:30:35;97004.28;;;7.35;78.47
40502;BME280;29631;49.168;9.848;2023-01-27T10:33:21;96997.03;;;7.37;79.43
40502;BME280;29631;49.168;9.848;2023-01-27T10:35:51;97009.28;;;7.45;79.28
40502;BME280;29631;49.168;9.848;2023-01-27T10:50:53;96999.03;;;7.35;79.36
40502;BME280;29631;49.168;9.848;2023-01-27T10:54:17;97005.22;;;7.42;79.65
40502;BME280;29631;49.168;9.848;2023-01-27T10:56:44;97016.50;;;7.43;79.39
40502;BME280;29631;49.168;9.848;2023-01-27T10:59:45;97001.00;;;7.33;78.75
40502;BME280;29631;49.168;9.848;2023-01-27T11:02:24;97001.81;;;7.34;78.83
40502;BME280;29631;49.168;9.848;2023-01-27T11:05:12;97002.00;;;7.32;79.54
40502;BME280;29631;49.168;9.848;2023-01-27T11:07:48;97013.09;;;7.42;78.96
40502;BME280;29631;49.168;9.848;2023-01-27T11:10:18;97008.19;;;7.39;78.86
40502;BME280;29631;49.168;9.848;2023-01-27T11:12:53;97008.69;;;7.35;78.94
40502;BME280;29631;49.168;9.848;2023-01-27T11:15:30;97006.25;;;7.33;79.09
40502;BME280;29631;49.168;9.848;2023-01-27T11:18:21;97010.16;;;7.37;79.75
40502;BME280;29631;49.168;9.848;2023-01-27T11:21:11;97014.72;;;7.43;78.74
40502;BME280;29631;49.168;9.848;2023-01-27T11:23:48;97003.31;;;7.36;79.12
40502;BME280;29631;49.168;9.848;2023-01-27T11:29:27;97007.53;;;7.37;78.79
40502;BME280;29631;49.168;9.848;2023-01-27T11:35:03;97007.19;;;7.40;78.98
40502;BME280;29631;49.168;9.848;2023-01-27T11:37:45;96988.81;;;7.26;79.19
40502;BME280;29631;49.168;9.848;2023-01-27T11:42:55;96988.09;;;7.32;78.70
40502;BME280;29631;49.168;9.848;2023-01-27T11:45:23;96971.91;;;7.28;78.92
40502;BME280;29631;49.168;9.848;2023-01-27T11:47:55;96981.31;;;7.37;79.09
40502;BME280;29631;49.168;9.848;2023-01-27T11:50:33;96972.81;;;7.35;79.14
40502;BME280;29631;49.168;9.848;2023-01-27T11:53:13;96992.38;;;7.47;79.04
40502;BME280;29631;49.168;9.848;2023-01-27T11:55:48;96980.06;;;7.48;78.87
40502;BME280;29631;49.168;9.848;2023-01-27T12:00:58;96977.63;;;7.46;78.57
40502;BME280;29631;49.168;9.848;2023-01-27T12:03:58;96985.16;;;7.49;78.60
40502;BME280;29631;49.168;9.848;2023-01-27T12:06:45;96977.44;;;7.48;79.20
40502;BME280;29631;49.168;9.848;2023-01-27T12:09:39;96975.81;;;7.47;78.33
40502;BME280;29631;49.168;9.848;2023-01-27T12:14:34;96949.31;;;7.42;78.95
40502;BME280;29631;49.168;9.848;2023-01-27T12:17:02;96957.63;;;7.45;78.25
40502;BME280;29631;49.168;9.848;2023-01-27T12:19:43;96974.28;;;7.52;79.05
40502;BME280;29631;49.168;9.848;2023-01-27T12:22:23;96967.41;;;7.51;78.87
40502;BME280;29631;49.168;9.848;2023-01-27T12:24:56;96963.81;;;7.52;78.34
40502;BME280;29631;49.168;9.848;2023-01-27T12:27:29;96962.63;;;7.55;78.66
40502;BME280;29631;49.168;9.848;2023-01-27T12:30:05;96976.03;;;7.60;78.33
40502;BME280;29631;49.168;9.848;2023-01-27T12:32:42;96962.81;;;7.53;79.00
40502;BME280;29631;49.168;9.848;2023-01-27T12:35:28;96968.72;;;7.55;78.32
40502;BME280;29631;49.168;9.848;2023-01-27T12:38:23;96963.63;;;7.54;78.93
40502;BME280;29631;49.168;9.848;2023-01-27T12:43:23;96956.94;;;7.51;78.77
40502;BME280;29631;49.168;9.848;2023-01-27T12:48:49;96966.69;;;7.57;78.49
40502;BME280;29631;49.168;9.848;2023-01-27T12:51:22;96949.25;;;7.50;78.30
40502;BME280;29631;49.168;9.848;2023-01-27T12:53:49;96945.25;;;7.54;78.31
40502;BME280;29631;49.168;9.848;2023-01-27T12:56:20;96946.56;;;7.58;79.07
40502;BME280;29631;49.168;9.848;2023-01-27T12:58:59;96952.13;;;7.55;78.71
40502;BME280;29631;49.168;9.848;2023-01-27T13:01:35;96941.66;;;7.55;78.78
40502;BME280;29631;49.168;9.848;2023-01-27T13:06:50;96945.38;;;7.60;78.85
40502;BME280;29631;49.168;9.848;2023-01-27T13:12:26;96938.88;;;7.56;78.82
40502;BME280;29631;49.168;9.848;2023-01-27T13:15:18;96937.22;;;7.55;78.97
40502;BME280;29631;49.168;9.848;2023-01-27T13:17:49;96937.22;;;7.55;78.83
40502;BME280;29631;49.168;9.848;2023-01-27T13:23:21;96946.09;;;7.54;78.22
40502;BME280;29631;49.168;9.848;2023-01-27T13:29:09;96977.78;;;7.67;79.24
40502;BME280;29631;49.168;9.848;2023-01-27T13:31:52;96957.84;;;7.58;79.09
40502;BME280;29631;49.168;9.848;2023-01-27T13:43:31;96979.09;;;7.63;79.16
40502;BME280;29631;49.168;9.848;2023-01-27T13:46:23;96957.75;;;7.52;78.69
40502;BME280;29631;49.168;9.848;2023-01-27T13:48:58;96982.56;;;7.64;78.89
40502;BME280;29631;49.168;9.848;2023-01-27T13:51:29;96977.13;;;7.65;78.93
40502;BME280;29631;49.168;9.848;2023-01-27T13:54:01;96981.84;;;7.70;78.20
40502;BME280;29631;49.168;9.848;2023-01-27T13:57:01;96995.59;;;7.72;78.73
40502;BME280;29631;49.168;9.848;2023-01-27T14:06:17;96980.47;;;7.59;78.62
40502;BME280;29631;49.168;9.848;2023-01-27T14:08:52;97002.63;;;7.71;79.19
40502;BME280;29631;49.168;9.848;2023-01-27T14:11:37;96986.63;;;7.66;78.33
40502;BME280;29631;49.168;9.848;2023-01-27T14:20:44;97002.91;;;7.76;79.24
40502;BME280;29631;49.168;9.848;2023-01-27T14:23:34;96999.69;;;7.74;78.72
40502;BME280;29631;49.168;9.848;2023-01-27T14:32:40;96999.94;;;7.79;78.48
40502;BME280;29631;49.168;9.848;2023-01-27T14:38:12;97000.59;;;7.81;78.81
40502;BME280;29631;49.168;9.848;2023-01-27T14:41:29;96990.50;;;7.70;78.89
40502;BME280;29631;49.168;9.848;2023-01-27T14:46:58;96981.78;;;7.78;78.45
40502;BME280;29631;49.168;9.848;2023-01-27T15:04:37;96995.88;;;7.91;78.29
40502;BME280;29631;49.168;9.848;2023-01-27T15:10:24;96996.88;;;7.90;78.50
40502;BME280;29631;49.168;9.848;2023-01-27T15:13:25;97001.59;;;7.94;78.91
40502;BME280;29631;49.168;9.848;2023-01-27T15:16:18;96996.88;;;7.90;78.80
40502;BME280;29631;49.168;9.848;2023-01-27T15:19:02;96987.75;;;7.86;78.68
40502;BME280;29631;49.168;9.848;2023-01-27T15:27:40;96994.25;;;7.90;79.42
40502;BME280;29631;49.168;9.848;2023-01-27T15:30:26;97003.88;;;7.97;78.56
40502;BME280;29631;49.168;9.848;2023-01-27T15:32:53;97003.50;;;8.00;79.36
40502;BME280;29631;49.168;9.848;2023-01-27T15:35:38;96985.84;;;7.94;78.57
40502;BME280;29631;49.168;9.848;2023-01-27T15:40:59;97004.66;;;7.98;78.75
40502;BME280;29631;49.168;9.848;2023-01-27T15:43:29;97010.56;;;8.00;79.06
40502;BME280;29631;49.168;9.848;2023-01-27T15:45:56;97011.56;;;7.99;79.33